sensor_id;sensor_type;location;lat;lon;timestamp;pressure;altitude;pressure_sealevel;temperature;humidity
8294;BME280;4185;41.506;24.938;2023-06-24T00:01:32;93754.66;;;18.96;84.75
8294;BME280;4185;41.506;24.938;2023-06-24T00:04:00;93754.91;;;18.85;84.90
8294;BME280;4185;41.506;24.938;2023-06-24T00:06:27;93746.03;;;18.79;84.81
8294;BME280;4185;41.506;24.938;2023-06-24T00:08:55;93751.00;;;18.81;85.61
8294;BME280;4185;41.506;24.938;2023-06-24T00:11:27;93750.38;;;18.75;84.54
8294;BME280;4185;41.506;24.938;2023-06-24T00:13:54;93749.44;;;18.59;85.30
8294;BME280;4185;41.506;24.938;2023-06-24T00:16:21;93749.69;;;18.48;84.79
8294;BME280;4185;41.506;24.938;2023-06-24T00:18:53;93758.56;;;18.41;85.01
8294;BME280;4185;41.506;24.938;2023-06-24T00:21:20;93745.84;;;18.38;86.47
8294;BME280;4185;41.506;24.938;2023-06-24T00:23:48;93738.31;;;18.39;86.57
8294;BME280;4185;41.506;24.938;2023-06-24T00:26:16;93753.69;;;18.47;86.52
8294;BME280;4185;41.506;24.938;2023-06-24T00:28:43;93747.56;;;18.54;86.30
8294;BME280;4185;41.506;24.938;2023-06-24T00:31:10;93748.81;;;18.66;85.67
8294;BME280;4185;41.506;24.938;2023-06-24T00:33:37;93754.31;;;18.66;85.91
8294;BME280;4185;41.506;24.938;2023-06-24T00:36:04;93748.38;;;18.62;85.78
8294;BME280;4185;41.506;24.938;2023-06-24T00:38:32;93750.94;;;18.60;86.59
8294;BME280;4185;41.506;24.938;2023-06-24T00:40:59;93762.38;;;18.51;85.90
8294;BME280;4185;41.506;24.938;2023-06-24T00:43:27;93754.75;;;18.44;85.73
8294;BME280;4185;41.506;24.938;2023-06-24T00:45:55;93753.91;;;18.36;85.92
8294;BME280;4185;41.506;24.938;2023-06-24T00:48:22;93752.75;;;18.32;86.00
8294;BME280;4185;41.506;24.938;2023-06-24T00:50:49;93747.75;;;18.30;86.97
8294;BME280;4185;41.506;24.938;2023-06-24T00:53:16;93742.56;;;18.26;87.65
8294;BME280;4185;41.506;24.938;2023-06-24T00:55:44;93742.38;;;18.24;87.26
8294;BME280;4185;41.506;24.938;2023-06-24T00:58:11;93732.94;;;18.20;86.78
8294;BME280;4185;41.506;24.938;2023-06-24T01:00:42;93736.53;;;18.15;87.27
8294;BME280;4185;41.506;24.938;2023-06-24T01:03:11;93740.78;;;18.16;87.05
8294;BME280;4185;41.506;24.938;2023-06-24T01:05:39;93736.75;;;18.17;87.37
8294;BME280;4185;41.506;24.938;2023-06-24T01:08:07;93739.72;;;18.19;86.93
8294;BME280;4185;41.506;24.938;2023-06-24T01:10:33;93740.88;;;18.23;86.61
8294;BME280;4185;41.506;24.938;2023-06-24T01:13:00;93735.72;;;18.33;86.07
8294;BME280;4185;41.506;24.938;2023-06-24T01:15:27;93732.97;;;18.33;85.57
8294;BME280;4185;41.506;24.938;2023-06-24T01:18:00;93732.75;;;18.31;85.38
8294;BME280;4185;41.506;24.938;2023-06-24T01:20:33;93732.09;;;18.25;85.92
8294;BME280;4185;41.506;24.938;2023-06-24T01:23:29;93733.25;;;18.16;85.59
8294;BME280;4185;41.506;24.938;2023-06-24T01:26:22;93719.59;;;17.98;86.66
8294;BME280;4185;41.506;24.938;2023-06-24T01:29:14;93730.81;;;17.87;86.89
8294;BME280;4185;41.506;24.938;2023-06-24T01:31:50;93735.88;;;17.83;86.84
8294;BME280;4185;41.506;24.938;2023-06-24T01:34:24;93731.00;;;17.76;87.35
8294;BME280;4185;41.506;24.938;2023-06-24T01:36:59;93722.13;;;17.70;87.26
8294;BME280;4185;41.506;24.938;2023-06-24T01:39:28;93723.94;;;17.67;87.71
8294;BME280;4185;41.506;24.938;2023-06-24T01:42:03;93722.13;;;17.70;88.00
8294;BME280;4185;41.506;24.938;2023-06-24T01:44:33;93727.94;;;17.79;87.86
8294;BME280;4185;41.506;24.938;2023-06-24T01:47:05;93731.22;;;17.78;88.39
8294;BME280;4185;41.506;24.938;2023-06-24T01:49:38;93723.19;;;17.80;88.02
8294;BME280;4185;41.506;24.938;2023-06-24T01:52:08;93718.53;;;17.75;88.26
8294;BME280;4185;41.506;24.938;2023-06-24T01:54:36;93723.81;;;17.73;88.62
8294;BME280;4185;41.506;24.938;2023-06-24T01:57:06;93718.44;;;17.67;88.25
8294;BME280;4185;41.506;24.938;2023-06-24T01:59:35;93720.22;;;17.65;88.51
8294;BME280;4185;41.506;24.938;2023-06-24T02:02:05;93726.69;;;17.67;88.61
8294;BME280;4185;41.506;24.938;2023-06-24T02:04:34;93725.41;;;17.68;88.42
8294;BME280;4185;41.506;24.938;2023-06-24T02:07:03;93727.94;;;17.66;88.80
8294;BME280;4185;41.506;24.938;2023-06-24T02:09:31;93734.16;;;17.67;88.41
8294;BME280;4185;41.506;24.938;2023-06-24T02:12:01;93733.13;;;17.70;88.24
8294;BME280;4185;41.506;24.938;2023-06-24T02:14:29;93735.66;;;17.68;88.23
8294;BME280;4185;41.506;24.938;2023-06-24T02:16:58;93733.72;;;17.63;89.59
8294;BME280;4185;41.506;24.938;2023-06-24T02:19:30;93734.47;;;17.63;89.63
8294;BME280;4185;41.506;24.938;2023-06-24T02:21:58;93734.56;;;17.58;89.63
8294;BME280;4185;41.506;24.938;2023-06-24T02:24:26;93736.16;;;17.53;89.71
8294;BME280;4185;41.506;24.938;2023-06-24T02:26:54;93735.47;;;17.47;89.35
8294;BME280;4185;41.506;24.938;2023-06-24T02:29:22;93743.81;;;17.42;89.29
8294;BME280;4185;41.506;24.938;2023-06-24T02:31:52;93745.88;;;17.36;89.31
8294;BME280;4185;41.506;24.938;2023-06-24T02:34:19;93752.19;;;17.31;89.02
8294;BME280;4185;41.506;24.938;2023-06-24T02:36:47;93751.78;;;17.27;89.59
8294;BME280;4185;41.506;24.938;2023-06-24T02:39:14;93756.81;;;17.23;89.77
8294;BME280;4185;41.506;24.938;2023-06-24T02:41:40;93763.38;;;17.20;89.63
8294;BME280;4185;41.506;24.938;2023-06-24T02:44:08;93759.56;;;17.23;89.70
8294;BME280;4185;41.506;24.938;2023-06-24T02:46:35;93744.16;;;17.20;89.21
8294;BME280;4185;41.506;24.938;2023-06-24T02:49:02;93761.72;;;17.30;88.82
8294;BME280;4185;41.506;24.938;2023-06-24T02:51:30;93761.25;;;17.26;88.49
8294;BME280;4185;41.506;24.938;2023-06-24T02:53:59;93757.47;;;17.29;88.66
8294;BME280;4185;41.506;24.938;2023-06-24T02:56:27;93749.22;;;17.29;88.46
8294;BME280;4185;41.506;24.938;2023-06-24T02:58:54;93751.78;;;17.27;88.53
8294;BME280;4185;41.506;24.938;2023-06-24T03:01:21;93758.09;;;17.22;88.66
8294;BME280;4185;41.506;24.938;2023-06-24T03:03:52;93758.28;;;17.24;87.93
8294;BME280;4185;41.506;24.938;2023-06-24T03:06:20;93752.81;;;17.24;87.78
8294;BME280;4185;41.506;24.938;2023-06-24T03:08:47;93754.16;;;17.17;87.67
8294;BME280;4185;41.506;24.938;2023-06-24T03:11:16;93758.19;;;17.16;88.04
8294;BME280;4185;41.506;24.938;2023-06-24T03:13:43;93760.41;;;17.18;87.90
8294;BME280;4185;41.506;24.938;2023-06-24T03:16:11;93766.53;;;17.24;88.29
8294;BME280;4185;41.506;24.938;2023-06-24T03:18:40;93762.53;;;17.25;88.24
8294;BME280;4185;41.506;24.938;2023-06-24T03:21:07;93771.81;;;17.22;88.52
8294;BME280;4185;41.506;24.938;2023-06-24T03:23:33;93771.66;;;17.14;88.68
8294;BME280;4185;41.506;24.938;2023-06-24T03:26:00;93763.22;;;17.12;88.73
8294;BME280;4185;41.506;24.938;2023-06-24T03:28:29;93771.66;;;17.14;88.02
8294;BME280;4185;41.506;24.938;2023-06-24T03:30:56;93763.97;;;17.13;89.08
8294;BME280;4185;41.506;24.938;2023-06-24T03:33:23;93761.00;;;17.11;88.85
8294;BME280;4185;41.506;24.938;2023-06-24T03:35:52;93766.03;;;17.06;89.53
8294;BME280;4185;41.506;24.938;2023-06-24T03:38:19;93763.09;;;17.04;88.83
8294;BME280;4185;41.506;24.938;2023-06-24T03:40:46;93765.59;;;17.02;89.24
8294;BME280;4185;41.506;24.938;2023-06-24T03:43:13;93764.09;;;17.01;89.33
8294;BME280;4185;41.506;24.938;2023-06-24T03:45:41;93764.09;;;17.01;89.38
8294;BME280;4185;41.506;24.938;2023-06-24T03:48:08;93751.22;;;16.96;89.32
8294;BME280;4185;41.506;24.938;2023-06-24T03:50:34;93761.59;;;17.03;89.58
8294;BME280;4185;41.506;24.938;2023-06-24T03:53:02;93763.91;;;16.99;89.70
8294;BME280;4185;41.506;24.938;2023-06-24T03:55:28;93763.28;;;17.06;89.30
8294;BME280;4185;41.506;24.938;2023-06-24T03:57:55;93762.47;;;17.12;89.47
8294;BME280;4185;41.506;24.938;2023-06-24T04:00:22;93761.16;;;17.18;89.24
8294;BME280;4185;41.506;24.938;2023-06-24T04:02:50;93768.97;;;17.27;89.77
8294;BME280;4185;41.506;24.938;2023-06-24T04:05:17;93764.56;;;17.37;89.94
8294;BME280;4185;41.506;24.938;2023-06-24T04:07:44;93767.19;;;17.48;89.68
8294;BME280;4185;41.506;24.938;2023-06-24T04:10:12;93770.06;;;17.56;89.24
8294;BME280;4185;41.506;24.938;2023-06-24T04:12:39;93768.84;;;17.70;88.78
8294;BME280;4185;41.506;24.938;2023-06-24T04:15:06;93759.97;;;17.77;88.57
8294;BME280;4185;41.506;24.938;2023-06-24T04:17:33;93754.78;;;17.73;89.04
8294;BME280;4185;41.506;24.938;2023-06-24T04:20:02;93762.50;;;17.75;88.75
8294;BME280;4185;41.506;24.938;2023-06-24T04:22:32;93752.16;;;17.81;88.57
8294;BME280;4185;41.506;24.938;2023-06-24T04:24:58;93753.44;;;17.80;88.79
8294;BME280;4185;41.506;24.938;2023-06-24T04:27:25;93751.66;;;17.82;89.13
8294;BME280;4185;41.506;24.938;2023-06-24T04:29:52;93757.56;;;17.86;88.93
8294;BME280;4185;41.506;24.938;2023-06-24T04:32:19;93756.50;;;17.89;89.36
8294;BME280;4185;41.506;24.938;2023-06-24T04:34:45;93757.59;;;17.99;89.10
8294;BME280;4185;41.506;24.938;2023-06-24T04:37:13;93746.16;;;18.08;88.81
8294;BME280;4185;41.506;24.938;2023-06-24T04:39:40;93740.88;;;18.23;87.78
8294;BME280;4185;41.506;24.938;2023-06-24T04:42:07;93744.38;;;18.24;88.72
8294;BME280;4185;41.506;24.938;2023-06-24T04:44:34;93740.69;;;18.35;88.01
8294;BME280;4185;41.506;24.938;2023-06-24T04:47:00;93747.66;;;18.49;87.26
8294;BME280;4185;41.506;24.938;2023-06-24T04:49:27;93749.44;;;18.59;87.33
8294;BME280;4185;41.506;24.938;2023-06-24T04:51:54;93750.91;;;18.73;86.59
8294;BME280;4185;41.506;24.938;2023-06-24T04:54:22;93748.44;;;18.83;87.15
8294;BME280;4185;41.506;24.938;2023-06-24T04:56:49;93751.19;;;18.96;86.95
8294;BME280;4185;41.506;24.938;2023-06-24T04:59:17;93740.25;;;19.03;87.25
8294;BME280;4185;41.506;24.938;2023-06-24T05:01:43;93741.06;;;19.11;87.24
8294;BME280;4185;41.506;24.938;2023-06-24T05:04:10;93747.59;;;19.21;87.60
8294;BME280;4185;41.506;24.938;2023-06-24T05:06:37;93748.47;;;19.29;87.63
8294;BME280;4185;41.506;24.938;2023-06-24T05:09:03;93737.91;;;19.41;87.91
8294;BME280;4185;41.506;24.938;2023-06-24T05:11:32;93742.00;;;19.48;87.66
8294;BME280;4185;41.506;24.938;2023-06-24T05:13:58;93740.81;;;19.56;87.31
8294;BME280;4185;41.506;24.938;2023-06-24T05:16:25;93739.25;;;19.68;86.07
8294;BME280;4185;41.506;24.938;2023-06-24T05:18:52;93743.94;;;19.81;85.63
8294;BME280;4185;41.506;24.938;2023-06-24T05:21:18;93742.38;;;19.93;85.42
8294;BME280;4185;41.506;24.938;2023-06-24T05:23:45;93741.38;;;20.03;85.91
8294;BME280;4185;41.506;24.938;2023-06-24T05:26:12;93739.94;;;20.10;86.20
8294;BME280;4185;41.506;24.938;2023-06-24T05:28:40;93748.84;;;20.16;86.74
8294;BME280;4185;41.506;24.938;2023-06-24T05:31:07;93748.13;;;20.23;86.87
8294;BME280;4185;41.506;24.938;2023-06-24T05:33:33;93747.44;;;20.30;86.15
8294;BME280;4185;41.506;24.938;2023-06-24T05:36:00;93746.00;;;20.36;86.23
8294;BME280;4185;41.506;24.938;2023-06-24T05:38:27;93739.47;;;20.47;85.99
8294;BME280;4185;41.506;24.938;2023-06-24T05:40:54;93743.94;;;20.57;85.18
8294;BME280;4185;41.506;24.938;2023-06-24T05:43:20;93747.66;;;20.68;85.15
8294;BME280;4185;41.506;24.938;2023-06-24T05:45:48;93746.63;;;20.78;85.06
8294;BME280;4185;41.506;24.938;2023-06-24T05:48:15;93754.38;;;20.87;86.03
8294;BME280;4185;41.506;24.938;2023-06-24T05:50:42;93763.25;;;20.93;85.89
8294;BME280;4185;41.506;24.938;2023-06-24T05:53:09;93752.97;;;21.01;85.73
8294;BME280;4185;41.506;24.938;2023-06-24T05:55:35;93749.72;;;21.10;85.70
8294;BME280;4185;41.506;24.938;2023-06-24T05:58:02;93746.59;;;21.21;84.82
8294;BME280;4185;41.506;24.938;2023-06-24T06:00:29;93748.66;;;21.28;85.32
8294;BME280;4185;41.506;24.938;2023-06-24T06:02:57;93740.91;;;21.34;85.11
8294;BME280;4185;41.506;24.938;2023-06-24T06:05:24;93741.69;;;21.42;84.85
8294;BME280;4185;41.506;24.938;2023-06-24T06:07:50;93751.66;;;21.53;85.20
8294;BME280;4185;41.506;24.938;2023-06-24T06:10:18;93756.06;;;21.63;85.16
8294;BME280;4185;41.506;24.938;2023-06-24T06:12:46;93752.03;;;21.72;84.26
8294;BME280;4185;41.506;24.938;2023-06-24T06:15:13;93754.84;;;21.80;84.38
8294;BME280;4185;41.506;24.938;2023-06-24T06:17:40;93760.56;;;21.89;83.12
8294;BME280;4185;41.506;24.938;2023-06-24T06:20:09;93761.84;;;21.96;82.75
8294;BME280;4185;41.506;24.938;2023-06-24T06:22:36;93753.19;;;22.07;82.54
8294;BME280;4185;41.506;24.938;2023-06-24T06:25:05;93748.38;;;22.15;82.75
8294;BME280;4185;41.506;24.938;2023-06-24T06:27:31;93749.09;;;22.23;81.38
8294;BME280;4185;41.506;24.938;2023-06-24T06:29:58;93752.78;;;22.33;82.03
8294;BME280;4185;41.506;24.938;2023-06-24T06:32:25;93760.53;;;22.42;82.32
8294;BME280;4185;41.506;24.938;2023-06-24T06:34:52;93759.97;;;22.51;80.99
8294;BME280;4185;41.506;24.938;2023-06-24T06:37:20;93750.91;;;22.58;80.03
8294;BME280;4185;41.506;24.938;2023-06-24T06:39:46;93762.72;;;22.66;79.83
8294;BME280;4185;41.506;24.938;2023-06-24T06:42:13;93759.34;;;22.75;79.73
8294;BME280;4185;41.506;24.938;2023-06-24T06:44:41;93756.00;;;22.84;79.38
8294;BME280;4185;41.506;24.938;2023-06-24T06:47:07;93749.91;;;22.93;78.01
8294;BME280;4185;41.506;24.938;2023-06-24T06:49:34;93750.78;;;23.03;76.75
8294;BME280;4185;41.506;24.938;2023-06-24T06:52:01;93738.56;;;23.06;76.60
8294;BME280;4185;41.506;24.938;2023-06-24T06:54:29;93741.84;;;23.12;74.91
8294;BME280;4185;41.506;24.938;2023-06-24T06:57:00;93736.84;;;23.18;73.40
8294;BME280;4185;41.506;24.938;2023-06-24T06:59:27;93729.44;;;23.28;73.20
8294;BME280;4185;41.506;24.938;2023-06-24T07:01:54;93730.47;;;23.40;73.46
8294;BME280;4185;41.506;24.938;2023-06-24T07:04:20;93727.81;;;23.50;73.35
8294;BME280;4185;41.506;24.938;2023-06-24T07:06:47;93725.34;;;23.61;73.58
8294;BME280;4185;41.506;24.938;2023-06-24T07:09:14;93727.84;;;23.74;73.14
8294;BME280;4185;41.506;24.938;2023-06-24T07:11:42;93724.97;;;23.89;71.62
8294;BME280;4185;41.506;24.938;2023-06-24T07:14:09;93722.50;;;24.01;67.41
8294;BME280;4185;41.506;24.938;2023-06-24T07:16:36;93723.50;;;24.13;67.20
8294;BME280;4185;41.506;24.938;2023-06-24T07:19:03;93718.78;;;24.23;65.59
8294;BME280;4185;41.506;24.938;2023-06-24T07:21:30;93721.47;;;24.31;63.61
8294;BME280;4185;41.506;24.938;2023-06-24T07:23:56;93720.66;;;24.38;62.25
8294;BME280;4185;41.506;24.938;2023-06-24T07:26:23;93726.16;;;24.45;54.51
8294;BME280;4185;41.506;24.938;2023-06-24T07:28:51;93720.50;;;24.53;54.68
8294;BME280;4185;41.506;24.938;2023-06-24T07:31:18;93725.59;;;24.64;54.92
8294;BME280;4185;41.506;24.938;2023-06-24T07:33:45;93719.25;;;24.71;51.54
8294;BME280;4185;41.506;24.938;2023-06-24T07:36:12;93717.69;;;24.77;51.04
8294;BME280;4185;41.506;24.938;2023-06-24T07:38:39;93711.88;;;24.83;49.66
8294;BME280;4185;41.506;24.938;2023-06-24T07:41:06;93718.09;;;24.91;49.55
8294;BME280;4185;41.506;24.938;2023-06-24T07:43:33;93717.41;;;25.00;49.38
8294;BME280;4185;41.506;24.938;2023-06-24T07:46:02;93706.94;;;25.08;49.91
8294;BME280;4185;41.506;24.938;2023-06-24T07:48:28;93709.78;;;25.17;50.50
8294;BME280;4185;41.506;24.938;2023-06-24T07:50:55;93710.25;;;25.23;49.31
8294;BME280;4185;41.506;24.938;2023-06-24T07:53:22;93702.97;;;25.28;49.41
8294;BME280;4185;41.506;24.938;2023-06-24T07:55:48;93713.25;;;25.35;50.07
8294;BME280;4185;41.506;24.938;2023-06-24T07:58:15;93711.28;;;25.45;50.56
8294;BME280;4185;41.506;24.938;2023-06-24T08:00:42;93697.53;;;25.47;49.86
8294;BME280;4185;41.506;24.938;2023-06-24T08:03:10;93707.66;;;25.52;48.75
8294;BME280;4185;41.506;24.938;2023-06-24T08:05:37;93710.16;;;25.58;47.68
8294;BME280;4185;41.506;24.938;2023-06-24T08:08:04;93709.91;;;25.63;47.83
8294;BME280;4185;41.506;24.938;2023-06-24T08:10:31;93703.09;;;25.74;47.52
8294;BME280;4185;41.506;24.938;2023-06-24T08:12:58;93700.16;;;25.81;47.90
8294;BME280;4185;41.506;24.938;2023-06-24T08:15:25;93705.91;;;25.93;48.31
8294;BME280;4185;41.506;24.938;2023-06-24T08:17:52;93708.84;;;25.95;44.96
8294;BME280;4185;41.506;24.938;2023-06-24T08:20:21;93716.78;;;25.98;44.63
8294;BME280;4185;41.506;24.938;2023-06-24T08:22:48;93707.75;;;26.07;44.88
8294;BME280;4185;41.506;24.938;2023-06-24T08:25:15;93714.97;;;26.20;43.65
8294;BME280;4185;41.506;24.938;2023-06-24T08:27:41;93725.66;;;26.23;43.46
8294;BME280;4185;41.506;24.938;2023-06-24T08:30:12;93723.03;;;26.25;43.10
8294;BME280;4185;41.506;24.938;2023-06-24T08:32:40;93721.00;;;26.35;44.25
8294;BME280;4185;41.506;24.938;2023-06-24T08:35:07;93715.59;;;26.47;43.95
8294;BME280;4185;41.506;24.938;2023-06-24T08:37:36;93720.75;;;26.51;43.06
8294;BME280;4185;41.506;24.938;2023-06-24T08:40:04;93726.16;;;26.48;43.47
8294;BME280;4185;41.506;24.938;2023-06-24T08:42:31;93724.84;;;26.50;44.11
8294;BME280;4185;41.506;24.938;2023-06-24T08:44:58;93719.72;;;26.56;44.16
8294;BME280;4185;41.506;24.938;2023-06-24T08:47:27;93715.31;;;26.62;44.21
8294;BME280;4185;41.506;24.938;2023-06-24T08:50:01;93713.78;;;26.69;44.75
8294;BME280;4185;41.506;24.938;2023-06-24T08:52:31;93716.53;;;26.78;44.27
8294;BME280;4185;41.506;24.938;2023-06-24T08:55:01;93717.41;;;26.81;43.72
8294;BME280;4185;41.506;24.938;2023-06-24T08:57:28;93715.09;;;26.87;44.54
8294;BME280;4185;41.506;24.938;2023-06-24T08:59:55;93718.88;;;26.91;44.86
8294;BME280;4185;41.506;24.938;2023-06-24T09:02:22;93714.78;;;27.02;44.78
8294;BME280;4185;41.506;24.938;2023-06-24T09:04:50;93712.72;;;27.12;45.54
8294;BME280;4185;41.506;24.938;2023-06-24T09:07:26;93718.75;;;27.18;45.62
8294;BME280;4185;41.506;24.938;2023-06-24T09:09:53;93720.66;;;26.96;45.46
8294;BME280;4185;41.506;24.938;2023-06-24T09:12:24;93723.16;;;26.83;45.96
8294;BME280;4185;41.506;24.938;2023-06-24T09:14:51;93728.88;;;26.85;46.50
8294;BME280;4185;41.506;24.938;2023-06-24T09:17:18;93730.78;;;26.82;46.22
8294;BME280;4185;41.506;24.938;2023-06-24T09:19:48;93727.25;;;26.91;46.37
8294;BME280;4185;41.506;24.938;2023-06-24T09:22:15;93729.16;;;27.08;46.71
8294;BME280;4185;41.506;24.938;2023-06-24T09:24:43;93729.72;;;27.35;46.51
8294;BME280;4185;41.506;24.938;2023-06-24T09:27:13;93718.38;;;27.52;46.19
8294;BME280;4185;41.506;24.938;2023-06-24T09:29:42;93712.47;;;27.67;45.86
8294;BME280;4185;41.506;24.938;2023-06-24T09:32:10;93709.66;;;27.77;46.20
8294;BME280;4185;41.506;24.938;2023-06-24T09:34:37;93716.53;;;27.85;46.01
8294;BME280;4185;41.506;24.938;2023-06-24T09:37:04;93716.25;;;27.81;46.25
8294;BME280;4185;41.506;24.938;2023-06-24T09:39:36;93706.16;;;27.67;46.59
8294;BME280;4185;41.506;24.938;2023-06-24T09:42:04;93700.19;;;27.51;46.45
8294;BME280;4185;41.506;24.938;2023-06-24T09:44:33;93707.56;;;27.46;47.10
8294;BME280;4185;41.506;24.938;2023-06-24T09:47:01;93705.44;;;27.66;46.70
8294;BME280;4185;41.506;24.938;2023-06-24T09:49:28;93697.13;;;27.87;47.02
8294;BME280;4185;41.506;24.938;2023-06-24T09:51:57;93699.00;;;28.04;46.35
8294;BME280;4185;41.506;24.938;2023-06-24T09:54:25;93692.81;;;28.05;46.02
8294;BME280;4185;41.506;24.938;2023-06-24T09:56:54;93693.56;;;28.06;44.89
8294;BME280;4185;41.506;24.938;2023-06-24T09:59:21;93698.91;;;27.92;44.45
8294;BME280;4185;41.506;24.938;2023-06-24T10:01:49;93692.03;;;27.74;44.61
8294;BME280;4185;41.506;24.938;2023-06-24T10:04:21;93682.28;;;27.85;45.04
8294;BME280;4185;41.506;24.938;2023-06-24T10:06:48;93680.03;;;28.02;45.76
8294;BME280;4185;41.506;24.938;2023-06-24T10:09:15;93684.50;;;28.17;44.72
8294;BME280;4185;41.506;24.938;2023-06-24T10:11:45;93681.19;;;28.30;43.86
8294;BME280;4185;41.506;24.938;2023-06-24T10:14:12;93672.50;;;28.35;44.92
8294;BME280;4185;41.506;24.938;2023-06-24T10:16:40;93664.88;;;28.26;41.82
8294;BME280;4185;41.506;24.938;2023-06-24T10:19:07;93673.41;;;28.28;43.11
8294;BME280;4185;41.506;24.938;2023-06-24T10:21:50;93681.25;;;28.41;42.70
8294;BME280;4185;41.506;24.938;2023-06-24T10:24:31;93677.72;;;28.50;42.33
8294;BME280;4185;41.506;24.938;2023-06-24T10:27:03;93672.19;;;28.62;42.85
8294;BME280;4185;41.506;24.938;2023-06-24T10:29:34;93670.50;;;28.68;41.49
8294;BME280;4185;41.506;24.938;2023-06-24T10:32:03;93671.97;;;28.69;40.91
8294;BME280;4185;41.506;24.938;2023-06-24T10:34:32;93671.50;;;28.73;40.52
8294;BME280;4185;41.506;24.938;2023-06-24T10:37:02;93664.81;;;28.66;41.05
8294;BME280;4185;41.506;24.938;2023-06-24T10:39:39;93658.84;;;28.72;41.22
8294;BME280;4185;41.506;24.938;2023-06-24T10:42:26;93652.84;;;28.87;40.29
8294;BME280;4185;41.506;24.938;2023-06-24T10:44:55;93655.44;;;28.95;40.00
8294;BME280;4185;41.506;24.938;2023-06-24T10:47:22;93649.03;;;29.04;39.35
8294;BME280;4185;41.506;24.938;2023-06-24T10:49:50;93647.53;;;29.03;40.64
8294;BME280;4185;41.506;24.938;2023-06-24T10:52:20;93650.53;;;29.16;39.47
8294;BME280;4185;41.506;24.938;2023-06-24T10:54:47;93643.97;;;29.23;38.04
8294;BME280;4185;41.506;24.938;2023-06-24T10:57:14;93645.09;;;29.30;39.08
8294;BME280;4185;41.506;24.938;2023-06-24T10:59:42;93646.44;;;29.29;38.81
8294;BME280;4185;41.506;24.938;2023-06-24T11:02:09;93645.09;;;29.30;38.57
8294;BME280;4185;41.506;24.938;2023-06-24T11:04:43;93640.59;;;29.36;38.28
8294;BME280;4185;41.506;24.938;2023-06-24T11:07:10;93646.09;;;29.46;38.61
8294;BME280;4185;41.506;24.938;2023-06-24T11:09:40;93631.63;;;29.61;38.35
8294;BME280;4185;41.506;24.938;2023-06-24T11:12:09;93631.50;;;29.59;36.69
8294;BME280;4185;41.506;24.938;2023-06-24T11:14:36;93636.31;;;29.68;37.90
8294;BME280;4185;41.506;24.938;2023-06-24T11:17:04;93627.66;;;29.75;36.85
8294;BME280;4185;41.506;24.938;2023-06-24T11:19:31;93624.84;;;29.87;37.50
8294;BME280;4185;41.506;24.938;2023-06-24T11:22:01;93619.25;;;29.75;36.76
8294;BME280;4185;41.506;24.938;2023-06-24T11:24:28;93609.47;;;29.65;36.68
8294;BME280;4185;41.506;24.938;2023-06-24T11:26:56;93600.59;;;29.57;36.35
8294;BME280;4185;41.506;24.938;2023-06-24T11:29:23;93602.66;;;29.45;37.18
8294;BME280;4185;41.506;24.938;2023-06-24T11:31:50;93590.75;;;29.56;37.76
8294;BME280;4185;41.506;24.938;2023-06-24T11:34:17;93598.66;;;29.82;37.97
8294;BME280;4185;41.506;24.938;2023-06-24T11:36:44;93602.06;;;30.04;38.27
8294;BME280;4185;41.506;24.938;2023-06-24T11:39:20;93599.34;;;30.18;38.24
8294;BME280;4185;41.506;24.938;2023-06-24T11:41:47;93593.97;;;30.33;37.08
8294;BME280;4185;41.506;24.938;2023-06-24T11:44:17;93596.56;;;30.06;35.78
8294;BME280;4185;41.506;24.938;2023-06-24T11:46:44;93596.69;;;30.08;36.67
8294;BME280;4185;41.506;24.938;2023-06-24T11:49:10;93583.41;;;29.97;36.18
8294;BME280;4185;41.506;24.938;2023-06-24T11:51:45;93582.94;;;29.89;35.95
8294;BME280;4185;41.506;24.938;2023-06-24T11:54:14;93582.97;;;29.77;36.25
8294;BME280;4185;41.506;24.938;2023-06-24T11:56:42;93584.94;;;29.75;35.54
8294;BME280;4185;41.506;24.938;2023-06-24T11:59:17;93576.53;;;29.75;35.69
8294;BME280;4185;41.506;24.938;2023-06-24T12:01:45;93572.00;;;29.81;36.04
8294;BME280;4185;41.506;24.938;2023-06-24T12:04:12;93562.00;;;29.78;35.54
8294;BME280;4185;41.506;24.938;2023-06-24T12:06:39;93565.44;;;29.88;36.47
8294;BME280;4185;41.506;24.938;2023-06-24T12:09:07;93570.03;;;29.96;35.96
8294;BME280;4185;41.506;24.938;2023-06-24T12:11:34;93561.00;;;29.97;35.42
8294;BME280;4185;41.506;24.938;2023-06-24T12:14:01;93565.63;;;30.04;36.42
8294;BME280;4185;41.506;24.938;2023-06-24T12:16:29;93556.59;;;30.17;36.58
8294;BME280;4185;41.506;24.938;2023-06-24T12:18:56;93564.88;;;30.15;35.51
8294;BME280;4185;41.506;24.938;2023-06-24T12:21:23;93561.97;;;30.13;35.91
8294;BME280;4185;41.506;24.938;2023-06-24T12:23:49;93559.16;;;30.13;36.67
8294;BME280;4185;41.506;24.938;2023-06-24T12:26:16;93552.09;;;30.24;36.13
8294;BME280;4185;41.506;24.938;2023-06-24T12:28:43;93539.22;;;30.44;36.23
8294;BME280;4185;41.506;24.938;2023-06-24T12:31:09;93539.50;;;30.61;35.54
8294;BME280;4185;41.506;24.938;2023-06-24T12:33:37;93541.19;;;30.66;36.29
8294;BME280;4185;41.506;24.938;2023-06-24T12:36:04;93532.75;;;30.78;34.66
8294;BME280;4185;41.506;24.938;2023-06-24T12:38:31;93545.13;;;30.61;35.49
8294;BME280;4185;41.506;24.938;2023-06-24T12:40:58;93535.94;;;30.47;35.86
8294;BME280;4185;41.506;24.938;2023-06-24T12:43:24;93532.44;;;30.35;35.75
8294;BME280;4185;41.506;24.938;2023-06-24T12:45:51;93523.91;;;30.33;35.89
8294;BME280;4185;41.506;24.938;2023-06-24T12:48:18;93515.25;;;30.29;35.94
8294;BME280;4185;41.506;24.938;2023-06-24T12:50:46;93504.41;;;30.35;35.86
8294;BME280;4185;41.506;24.938;2023-06-24T12:53:18;93502.91;;;30.46;36.39
8294;BME280;4185;41.506;24.938;2023-06-24T12:55:44;93501.84;;;30.64;37.10
8294;BME280;4185;41.506;24.938;2023-06-24T12:58:13;93501.22;;;30.91;36.91
8294;BME280;4185;41.506;24.938;2023-06-24T13:00:40;93498.13;;;31.12;36.88
8294;BME280;4185;41.506;24.938;2023-06-24T13:03:06;93494.13;;;31.29;35.78
8294;BME280;4185;41.506;24.938;2023-06-24T13:05:33;93497.97;;;31.22;34.43
8294;BME280;4185;41.506;24.938;2023-06-24T13:08:01;93492.84;;;31.18;34.53
8294;BME280;4185;41.506;24.938;2023-06-24T13:10:28;93495.97;;;31.24;35.51
8294;BME280;4185;41.506;24.938;2023-06-24T13:12:55;93496.22;;;31.42;35.75
8294;BME280;4185;41.506;24.938;2023-06-24T13:15:21;93497.69;;;31.43;34.29